sensor_id;sensor_type;location;lat;lon;timestamp;pressure;altitude;pressure_sealevel;temperature;humidity
53647;BME280;39550;52.230;5.194;2023-09-30T00:01:22;102329.34;;;15.11;82.17
53647;BME280;39550;52.230;5.194;2023-09-30T00:03:47;102334.56;;;15.14;82.51
53647;BME280;39550;52.230;5.194;2023-09-30T00:06:13;102341.47;;;15.12;82.60
53647;BME280;39550;52.230;5.194;2023-09-30T00:08:38;102330.22;;;15.13;82.57
53647;BME280;39550;52.230;5.194;2023-09-30T00:11:07;102336.28;;;15.12;82.40
53647;BME280;39550;52.230;5.194;2023-09-30T00:13:33;102331.09;;;15.12;82.57
53647;BME280;39550;52.230;5.194;2023-09-30T00:15:58;102338.84;;;15.10;82.31
53647;BME280;39550;52.230;5.194;2023-09-30T00:18:24;102342.31;;;15.09;82.82
53647;BME280;39550;52.230;5.194;2023-09-30T00:20:49;102345.75;;;15.08;82.28
53647;BME280;39550;52.230;5.194;2023-09-30T00:23:14;102341.41;;;15.09;82.58
53647;BME280;39550;52.230;5.194;2023-09-30T00:25:40;102338.81;;;15.07;82.97
53647;BME280;39550;52.230;5.194;2023-09-30T00:28:05;102345.72;;;15.07;82.97
53647;BME280;39550;52.230;5.194;2023-09-30T00:30:31;102343.97;;;15.04;82.56
53647;BME280;39550;52.230;5.194;2023-09-30T00:32:56;102348.31;;;15.05;82.80
53647;BME280;39550;52.230;5.194;2023-09-30T00:35:22;102349.16;;;15.04;82.43
53647;BME280;39550;52.230;5.194;2023-09-30T00:37:47;102356.94;;;15.03;82.59
53647;BME280;39550;52.230;5.194;2023-09-30T00:40:13;102363.88;;;15.04;82.41
53647;BME280;39550;52.230;5.194;2023-09-30T00:42:38;102362.09;;;15.01;82.72
53647;BME280;39550;52.230;5.194;2023-09-30T00:45:05;102375.09;;;15.03;82.50
53647;BME280;39550;52.230;5.194;2023-09-30T00:47:31;102381.13;;;15.02;82.71
53647;BME280;39550;52.230;5.194;2023-09-30T00:49:57;102384.56;;;15.01;83.05
53647;BME280;39550;52.230;5.194;2023-09-30T00:52:22;102384.56;;;15.01;82.75
53647;BME280;39550;52.230;5.194;2023-09-30T00:54:49;102381.97;;;14.99;83.11
53647;BME280;39550;52.230;5.194;2023-09-30T00:57:15;102374.13;;;14.94;82.58
53647;BME280;39550;52.230;5.194;2023-09-30T00:59:42;102379.34;;;14.97;82.25
53647;BME280;39550;52.230;5.194;2023-09-30T01:02:07;102378.47;;;14.97;83.11
53647;BME280;39550;52.230;5.194;2023-09-30T01:04:33;102377.59;;;14.96;82.70
53647;BME280;39550;52.230;5.194;2023-09-30T01:06:58;102387.94;;;14.95;82.26
53647;BME280;39550;52.230;5.194;2023-09-30T01:09:24;102398.34;;;14.96;82.21
53647;BME280;39550;52.230;5.194;2023-09-30T01:11:50;102380.97;;;14.89;82.67
53647;BME280;39550;52.230;5.194;2023-09-30T01:14:32;102393.13;;;14.93;82.60
53647;BME280;39550;52.230;5.194;2023-09-30T01:17:04;102384.50;;;14.94;82.72
53647;BME280;39550;52.230;5.194;2023-09-30T01:19:29;102382.72;;;14.92;83.06
53647;BME280;39550;52.230;5.194;2023-09-30T01:21:56;102387.91;;;14.90;83.25
53647;BME280;39550;52.230;5.194;2023-09-30T01:24:28;102399.97;;;14.88;83.24
53647;BME280;39550;52.230;5.194;2023-09-30T01:26:53;102401.69;;;14.86;82.40
53647;BME280;39550;52.230;5.194;2023-09-30T01:29:19;102399.94;;;14.85;82.74
53647;BME280;39550;52.230;5.194;2023-09-30T01:31:45;102399.97;;;14.88;83.04
53647;BME280;39550;52.230;5.194;2023-09-30T01:34:13;102410.34;;;14.88;82.84
53647;BME280;39550;52.230;5.194;2023-09-30T01:36:39;102397.34;;;14.87;83.22
53647;BME280;39550;52.230;5.194;2023-09-30T01:39:04;102400.81;;;14.86;82.55
53647;BME280;39550;52.230;5.194;2023-09-30T01:41:30;102392.13;;;14.85;83.06
53647;BME280;39550;52.230;5.194;2023-09-30T01:43:55;102389.53;;;14.85;82.42
53647;BME280;39550;52.230;5.194;2023-09-30T01:46:21;102386.06;;;14.83;82.30
53647;BME280;39550;52.230;5.194;2023-09-30T01:48:48;102392.97;;;14.84;82.56
53647;BME280;39550;52.230;5.194;2023-09-30T01:51:13;102391.25;;;14.83;82.32
53647;BME280;39550;52.230;5.194;2023-09-30T01:53:38;102396.44;;;14.83;82.90
53647;BME280;39550;52.230;5.194;2023-09-30T01:56:04;102389.50;;;14.82;83.12
53647;BME280;39550;52.230;5.194;2023-09-30T01:58:30;102373.94;;;14.82;82.54
53647;BME280;39550;52.230;5.194;2023-09-30T02:01:02;102370.44;;;14.80;82.45
53647;BME280;39550;52.230;5.194;2023-09-30T02:03:27;102375.63;;;14.80;82.98
53647;BME280;39550;52.230;5.194;2023-09-30T02:05:54;102379.09;;;14.79;82.72
53647;BME280;39550;52.230;5.194;2023-09-30T02:08:19;102378.19;;;14.78;82.78
53647;BME280;39550;52.230;5.194;2023-09-30T02:10:45;102380.72;;;14.74;82.46
53647;BME280;39550;52.230;5.194;2023-09-30T02:13:10;102388.56;;;14.78;82.24
53647;BME280;39550;52.230;5.194;2023-09-30T02:15:40;102385.97;;;14.77;82.97
53647;BME280;39550;52.230;5.194;2023-09-30T02:18:08;102375.53;;;14.74;82.93
53647;BME280;39550;52.230;5.194;2023-09-30T02:20:34;102373.81;;;14.76;82.76
53647;BME280;39550;52.230;5.194;2023-09-30T02:23:05;102375.53;;;14.74;82.57
53647;BME280;39550;52.230;5.194;2023-09-30T02:25:31;102380.72;;;14.74;82.87
53647;BME280;39550;52.230;5.194;2023-09-30T02:27:57;102387.63;;;14.72;82.93
53647;BME280;39550;52.230;5.194;2023-09-30T02:30:22;102389.38;;;14.74;82.35
53647;BME280;39550;52.230;5.194;2023-09-30T02:32:49;102393.69;;;14.74;83.15
53647;BME280;39550;52.230;5.194;2023-09-30T02:35:14;102389.34;;;14.73;82.51
53647;BME280;39550;52.230;5.194;2023-09-30T02:37:40;102386.75;;;14.73;82.24
53647;BME280;39550;52.230;5.194;2023-09-30T02:40:06;102382.44;;;14.72;82.65
53647;BME280;39550;52.230;5.194;2023-09-30T02:42:36;102382.44;;;14.72;82.62
53647;BME280;39550;52.230;5.194;2023-09-30T02:45:02;102386.75;;;14.71;82.40
53647;BME280;39550;52.230;5.194;2023-09-30T02:47:28;102379.78;;;14.70;82.50
53647;BME280;39550;52.230;5.194;2023-09-30T02:49:56;102373.75;;;14.70;83.32
53647;BME280;39550;52.230;5.194;2023-09-30T02:52:22;102373.75;;;14.70;81.99
53647;BME280;39550;52.230;5.194;2023-09-30T02:54:47;102372.88;;;14.69;83.03
53647;BME280;39550;52.230;5.194;2023-09-30T02:57:14;102365.88;;;14.63;82.39
53647;BME280;39550;52.230;5.194;2023-09-30T02:59:40;102370.28;;;14.68;82.71
53647;BME280;39550;52.230;5.194;2023-09-30T03:02:05;102372.00;;;14.69;82.71
53647;BME280;39550;52.230;5.194;2023-09-30T03:04:32;102374.59;;;14.69;82.63
53647;BME280;39550;52.230;5.194;2023-09-30T03:06:57;102379.78;;;14.69;82.87
53647;BME280;39550;52.230;5.194;2023-09-30T03:09:23;102379.78;;;14.69;82.43
53647;BME280;39550;52.230;5.194;2023-09-30T03:11:48;102375.38;;;14.64;82.43
53647;BME280;39550;52.230;5.194;2023-09-30T03:14:15;102369.38;;;14.67;82.59
53647;BME280;39550;52.230;5.194;2023-09-30T03:16:40;102378.06;;;14.68;82.57
53647;BME280;39550;52.230;5.194;2023-09-30T03:19:07;102378.91;;;14.67;82.45
53647;BME280;39550;52.230;5.194;2023-09-30T03:21:34;102371.94;;;14.66;82.69
53647;BME280;39550;52.230;5.194;2023-09-30T03:24:02;102367.59;;;14.64;82.29
53647;BME280;39550;52.230;5.194;2023-09-30T03:26:28;102355.53;;;14.65;83.14
53647;BME280;39550;52.230;5.194;2023-09-30T03:28:55;102365.00;;;14.64;83.10
53647;BME280;39550;52.230;5.194;2023-09-30T03:31:21;102366.72;;;14.62;82.77
53647;BME280;39550;52.230;5.194;2023-09-30T03:33:48;102366.75;;;14.64;82.55
53647;BME280;39550;52.230;5.194;2023-09-30T03:36:13;102371.91;;;14.62;83.10
53647;BME280;39550;52.230;5.194;2023-09-30T03:38:40;102371.91;;;14.62;82.38
53647;BME280;39550;52.230;5.194;2023-09-30T03:41:07;102368.38;;;14.60;83.03
53647;BME280;39550;52.230;5.194;2023-09-30T03:43:34;102368.38;;;14.60;82.89
53647;BME280;39550;52.230;5.194;2023-09-30T03:46:02;102369.25;;;14.59;82.71
53647;BME280;39550;52.230;5.194;2023-09-30T03:48:27;102375.28;;;14.58;82.00
53647;BME280;39550;52.230;5.194;2023-09-30T03:50:53;102366.66;;;14.59;83.38
53647;BME280;39550;52.230;5.194;2023-09-30T03:53:19;102337.81;;;14.42;82.21
53647;BME280;39550;52.230;5.194;2023-09-30T03:55:45;102372.69;;;14.58;82.68
53647;BME280;39550;52.230;5.194;2023-09-30T03:58:10;102361.47;;;14.59;82.27
53647;BME280;39550;52.230;5.194;2023-09-30T04:00:37;102364.91;;;14.58;83.37
53647;BME280;39550;52.230;5.194;2023-09-30T04:03:03;102368.34;;;14.57;82.64
53647;BME280;39550;52.230;5.194;2023-09-30T04:05:28;102372.69;;;14.58;82.56
53647;BME280;39550;52.230;5.194;2023-09-30T04:07:58;102377.03;;;14.59;81.93
53647;BME280;39550;52.230;5.194;2023-09-30T04:10:24;102363.16;;;14.57;82.36
53647;BME280;39550;52.230;5.194;2023-09-30T04:12:50;102365.75;;;14.57;82.37
53647;BME280;39550;52.230;5.194;2023-09-30T04:15:16;102369.16;;;14.56;82.92
53647;BME280;39550;52.230;5.194;2023-09-30T04:17:41;102374.34;;;14.55;83.53
53647;BME280;39550;52.230;5.194;2023-09-30T04:20:08;102372.63;;;14.55;83.40
53647;BME280;39550;52.230;5.194;2023-09-30T04:22:36;102366.53;;;14.53;82.65
53647;BME280;39550;52.230;5.194;2023-09-30T04:25:02;102364.78;;;14.52;82.76
53647;BME280;39550;52.230;5.194;2023-09-30T04:27:33;102376.91;;;14.53;83.35
53647;BME280;39550;52.230;5.194;2023-09-30T04:29:59;102369.94;;;14.49;82.53
53647;BME280;39550;52.230;5.194;2023-09-30T04:32:24;102383.84;;;14.54;82.78
53647;BME280;39550;52.230;5.194;2023-09-30T04:34:53;102382.09;;;14.53;82.19
53647;BME280;39550;52.230;5.194;2023-09-30T04:37:18;102386.44;;;14.53;82.12
53647;BME280;39550;52.230;5.194;2023-09-30T04:39:44;102388.13;;;14.52;82.69
53647;BME280;39550;52.230;5.194;2023-09-30T04:42:09;102389.88;;;14.52;82.90
53647;BME280;39550;52.230;5.194;2023-09-30T04:44:37;102390.72;;;14.52;82.26
53647;BME280;39550;52.230;5.194;2023-09-30T04:47:03;102393.28;;;14.51;82.99
53647;BME280;39550;52.230;5.194;2023-09-30T04:49:29;102392.44;;;14.50;82.52
53647;BME280;39550;52.230;5.194;2023-09-30T04:51:54;102394.19;;;14.51;82.97
53647;BME280;39550;52.230;5.194;2023-09-30T04:54:20;102388.06;;;14.47;82.50
53647;BME280;39550;52.230;5.194;2023-09-30T04:56:46;102393.28;;;14.49;82.21
53647;BME280;39550;52.230;5.194;2023-09-30T04:59:12;102391.53;;;14.48;82.59
53647;BME280;39550;52.230;5.194;2023-09-30T05:01:37;102401.00;;;14.46;82.70
53647;BME280;39550;52.230;5.194;2023-09-30T05:04:03;102401.00;;;14.46;82.14
53647;BME280;39550;52.230;5.194;2023-09-30T05:06:28;102400.88;;;14.40;82.80
53647;BME280;39550;52.230;5.194;2023-09-30T05:08:54;102406.19;;;14.46;82.89
53647;BME280;39550;52.230;5.194;2023-09-30T05:11:20;102393.22;;;14.44;82.89
53647;BME280;39550;52.230;5.194;2023-09-30T05:13:46;102394.06;;;14.45;83.06
53647;BME280;39550;52.230;5.194;2023-09-30T05:16:11;102381.00;;;14.37;82.91
53647;BME280;39550;52.230;5.194;2023-09-30T05:18:38;102389.69;;;14.42;83.32
53647;BME280;39550;52.230;5.194;2023-09-30T05:21:03;102400.06;;;14.42;83.25
53647;BME280;39550;52.230;5.194;2023-09-30T05:23:28;102399.22;;;14.42;82.74
53647;BME280;39550;52.230;5.194;2023-09-30T05:25:54;102400.06;;;14.41;83.27
53647;BME280;39550;52.230;5.194;2023-09-30T05:28:20;102406.13;;;14.41;82.89
53647;BME280;39550;52.230;5.194;2023-09-30T05:30:46;102380.00;;;14.30;82.25
53647;BME280;39550;52.230;5.194;2023-09-30T05:33:11;102406.06;;;14.40;82.76
53647;BME280;39550;52.230;5.194;2023-09-30T05:35:40;102392.09;;;14.31;82.82
53647;BME280;39550;52.230;5.194;2023-09-30T05:38:07;102410.41;;;14.39;82.92
53647;BME280;39550;52.230;5.194;2023-09-30T05:40:32;102418.16;;;14.38;82.91
53647;BME280;39550;52.230;5.194;2023-09-30T05:42:58;102412.13;;;14.37;83.25
53647;BME280;39550;52.230;5.194;2023-09-30T05:45:25;102403.41;;;14.35;82.78
53647;BME280;39550;52.230;5.194;2023-09-30T05:47:54;102407.78;;;14.38;82.76
53647;BME280;39550;52.230;5.194;2023-09-30T05:50:21;102402.56;;;14.35;82.72
53647;BME280;39550;52.230;5.194;2023-09-30T05:52:54;102405.16;;;14.36;82.73
53647;BME280;39550;52.230;5.194;2023-09-30T05:55:23;102411.22;;;14.37;82.77
53647;BME280;39550;52.230;5.194;2023-09-30T05:58:24;102414.66;;;14.36;83.32
53647;BME280;39550;52.230;5.194;2023-09-30T06:00:49;102412.06;;;14.36;83.05
53647;BME280;39550;52.230;5.194;2023-09-30T06:03:16;102418.13;;;14.36;82.67
53647;BME280;39550;52.230;5.194;2023-09-30T06:05:41;102430.22;;;14.36;82.89
53647;BME280;39550;52.230;5.194;2023-09-30T06:08:09;102416.41;;;14.37;82.78
53647;BME280;39550;52.230;5.194;2023-09-30T06:10:39;102414.59;;;14.33;82.65
53647;BME280;39550;52.230;5.194;2023-09-30T06:13:07;102410.34;;;14.36;82.36
53647;BME280;39550;52.230;5.194;2023-09-30T06:15:34;102412.06;;;14.36;82.53
53647;BME280;39550;52.230;5.194;2023-09-30T06:18:01;102400.75;;;14.30;83.01
53647;BME280;39550;52.230;5.194;2023-09-30T06:20:29;102414.66;;;14.36;82.59
53647;BME280;39550;52.230;5.194;2023-09-30T06:22:56;102416.34;;;14.34;83.02
53647;BME280;39550;52.230;5.194;2023-09-30T06:25:22;102419.84;;;14.36;82.00
53647;BME280;39550;52.230;5.194;2023-09-30T06:27:49;102430.22;;;14.36;83.14
53647;BME280;39550;52.230;5.194;2023-09-30T06:30:16;102422.44;;;14.36;83.39
53647;BME280;39550;52.230;5.194;2023-09-30T06:32:41;102431.97;;;14.37;82.89
53647;BME280;39550;52.230;5.194;2023-09-30T06:35:08;102436.31;;;14.38;83.10
53647;BME280;39550;52.230;5.194;2023-09-30T06:37:36;102440.66;;;14.39;83.13
53647;BME280;39550;52.230;5.194;2023-09-30T06:40:01;102441.53;;;14.39;82.41
53647;BME280;39550;52.230;5.194;2023-09-30T06:42:30;102447.56;;;14.40;83.00
53647;BME280;39550;52.230;5.194;2023-09-30T06:44:56;102447.56;;;14.40;82.33
53647;BME280;39550;52.230;5.194;2023-09-30T06:47:22;102452.75;;;14.40;82.57
53647;BME280;39550;52.230;5.194;2023-09-30T06:49:49;102451.09;;;14.42;82.04
53647;BME280;39550;52.230;5.194;2023-09-30T06:52:14;102447.66;;;14.43;82.42
53647;BME280;39550;52.230;5.194;2023-09-30T06:54:40;102411.91;;;14.25;82.10
53647;BME280;39550;52.230;5.194;2023-09-30T06:57:05;102454.53;;;14.41;82.21
53647;BME280;39550;52.230;5.194;2023-09-30T06:59:32;102461.47;;;14.42;82.11
53647;BME280;39550;52.230;5.194;2023-09-30T07:01:57;102464.88;;;14.41;82.68
53647;BME280;39550;52.230;5.194;2023-09-30T07:04:23;102473.50;;;14.40;82.60
53647;BME280;39550;52.230;5.194;2023-09-30T07:06:48;102476.09;;;14.40;82.30
53647;BME280;39550;52.230;5.194;2023-09-30T07:09:14;102481.34;;;14.41;82.59
53647;BME280;39550;52.230;5.194;2023-09-30T07:11:39;102478.78;;;14.43;83.09
53647;BME280;39550;52.230;5.194;2023-09-30T07:14:04;102483.97;;;14.43;81.93
53647;BME280;39550;52.230;5.194;2023-09-30T07:16:30;102483.97;;;14.43;82.24
53647;BME280;39550;52.230;5.194;2023-09-30T07:18:55;102489.16;;;14.43;82.02
53647;BME280;39550;52.230;5.194;2023-09-30T07:21:21;102489.19;;;14.46;82.19
53647;BME280;39550;52.230;5.194;2023-09-30T07:23:46;102489.19;;;14.46;81.99
53647;BME280;39550;52.230;5.194;2023-09-30T07:26:13;102485.75;;;14.45;82.26
53647;BME280;39550;52.230;5.194;2023-09-30T07:28:39;102478.69;;;14.40;82.45
53647;BME280;39550;52.230;5.194;2023-09-30T07:31:05;102484.75;;;14.39;82.30
53647;BME280;39550;52.230;5.194;2023-09-30T07:33:30;102495.97;;;14.38;82.25
53647;BME280;39550;52.230;5.194;2023-09-30T07:35:56;102480.22;;;14.28;82.87
53647;BME280;39550;52.230;5.194;2023-09-30T07:38:22;102495.09;;;14.37;82.78
53647;BME280;39550;52.230;5.194;2023-09-30T07:40:48;102502.00;;;14.38;82.06
53647;BME280;39550;52.230;5.194;2023-09-30T07:43:14;102500.31;;;14.39;82.16
53647;BME280;39550;52.230;5.194;2023-09-30T07:45:40;102511.56;;;14.41;82.87
53647;BME280;39550;52.230;5.194;2023-09-30T07:48:07;102508.19;;;14.45;82.40
53647;BME280;39550;52.230;5.194;2023-09-30T07:50:34;102523.81;;;14.48;82.71
53647;BME280;39550;52.230;5.194;2023-09-30T07:53:00;102523.03;;;14.52;81.44
53647;BME280;39550;52.230;5.194;2023-09-30T07:55:28;102512.53;;;14.46;82.09
53647;BME280;39550;52.230;5.194;2023-09-30T07:57:54;102517.84;;;14.52;82.33
53647;BME280;39550;52.230;5.194;2023-09-30T08:00:21;102510.13;;;14.55;82.10
53647;BME280;39550;52.230;5.194;2023-09-30T08:02:47;102509.25;;;14.55;82.40
53647;BME280;39550;52.230;5.194;2023-09-30T08:05:13;102502.22;;;14.49;81.94
53647;BME280;39550;52.230;5.194;2023-09-30T08:07:38;102496.16;;;14.48;81.94
53647;BME280;39550;52.230;5.194;2023-09-30T08:10:04;102494.44;;;14.49;82.16
53647;BME280;39550;52.230;5.194;2023-09-30T08:12:32;102480.50;;;14.44;82.35
53647;BME280;39550;52.230;5.194;2023-09-30T08:14:57;102483.97;;;14.43;82.71
53647;BME280;39550;52.230;5.194;2023-09-30T08:17:22;102491.78;;;14.44;82.28
53647;BME280;39550;52.230;5.194;2023-09-30T08:19:48;102480.50;;;14.44;82.40
53647;BME280;39550;52.230;5.194;2023-09-30T08:22:14;102474.50;;;14.46;82.91
53647;BME280;39550;52.230;5.194;2023-09-30T08:24:39;102470.13;;;14.44;82.37
53647;BME280;39550;52.230;5.194;2023-09-30T08:27:05;102479.69;;;14.46;82.31
53647;BME280;39550;52.230;5.194;2023-09-30T08:29:33;102487.50;;;14.48;82.82
53647;BME280;39550;52.230;5.194;2023-09-30T08:32:01;102484.00;;;14.46;82.33
53647;BME280;39550;52.230;5.194;2023-09-30T08:34:26;102484.97;;;14.50;82.92
53647;BME280;39550;52.230;5.194;2023-09-30T08:36:52;102492.75;;;14.51;82.07
53647;BME280;39550;52.230;5.194;2023-09-30T08:39:17;102497.94;;;14.51;82.09
53647;BME280;39550;52.230;5.194;2023-09-30T08:41:43;102503.19;;;14.54;82.13
53647;BME280;39550;52.230;5.194;2023-09-30T08:44:10;102509.22;;;14.53;82.34
53647;BME280;39550;52.230;5.194;2023-09-30T08:46:36;102509.25;;;14.55;82.52
53647;BME280;39550;52.230;5.194;2023-09-30T08:49:03;102494.47;;;14.52;82.33
53647;BME280;39550;52.230;5.194;2023-09-30T08:51:30;102489.28;;;14.52;82.76
53647;BME280;39550;52.230;5.194;2023-09-30T08:53:56;102498.81;;;14.52;81.94
53647;BME280;39550;52.230;5.194;2023-09-30T08:56:30;102497.94;;;14.51;82.19
53647;BME280;39550;52.230;5.194;2023-09-30T08:58:58;102497.19;;;14.57;82.02
53647;BME280;39550;52.230;5.194;2023-09-30T09:01:34;102495.44;;;14.56;82.75
53647;BME280;39550;52.230;5.194;2023-09-30T09:04:00;102485.81;;;14.50;82.11
53647;BME280;39550;52.230;5.194;2023-09-30T09:06:26;102505.81;;;14.56;81.66
53647;BME280;39550;52.230;5.194;2023-09-30T09:08:51;102516.19;;;14.57;82.20
53647;BME280;39550;52.230;5.194;2023-09-30T09:11:18;102522.22;;;14.56;82.32
53647;BME280;39550;52.230;5.194;2023-09-30T09:13:51;102527.41;;;14.56;82.04
53647;BME280;39550;52.230;5.194;2023-09-30T09:16:21;102529.19;;;14.57;82.91
53647;BME280;39550;52.230;5.194;2023-09-30T09:18:48;102543.00;;;14.58;82.01
53647;BME280;39550;52.230;5.194;2023-09-30T09:21:15;102546.53;;;14.61;81.82
53647;BME280;39550;52.230;5.194;2023-09-30T09:23:43;102560.47;;;14.63;81.74
53647;BME280;39550;52.230;5.194;2023-09-30T09:26:28;102553.56;;;14.66;82.22
53647;BME280;39550;52.230;5.194;2023-09-30T09:28:57;102558.00;;;14.71;81.74
53647;BME280;39550;52.230;5.194;2023-09-30T09:31:30;102557.22;;;14.77;81.56
53647;BME280;39550;52.230;5.194;2023-09-30T09:33:57;102545.19;;;14.79;81.45
53647;BME280;39550;52.230;5.194;2023-09-30T09:36:38;102540.00;;;14.79;81.51
53647;BME280;39550;52.230;5.194;2023-09-30T09:39:05;102553.00;;;14.82;81.19
53647;BME280;39550;52.230;5.194;2023-09-30T09:41:30;102553.84;;;14.81;81.01
53647;BME280;39550;52.230;5.194;2023-09-30T09:43:59;102560.78;;;14.82;81.79
53647;BME280;39550;52.230;5.194;2023-09-30T09:46:24;102567.75;;;14.83;81.61
53647;BME280;39550;52.230;5.194;2023-09-30T09:48:51;102550.47;;;14.85;81.65
53647;BME280;39550;52.230;5.194;2023-09-30T09:51:20;102550.47;;;14.85;81.51
53647;BME280;39550;52.230;5.194;2023-09-30T09:53:46;102552.16;;;14.83;81.05
53647;BME280;39550;52.230;5.194;2023-09-30T09:56:15;102539.06;;;14.77;81.50
53647;BME280;39550;52.230;5.194;2023-09-30T09:58:42;102558.28;;;14.87;81.34
53647;BME280;39550;52.230;5.194;2023-09-30T10:01:09;102560.06;;;14.89;81.03
53647;BME280;39550;52.230;5.194;2023-09-30T10:03:35;102560.19;;;14.95;81.00
53647;BME280;39550;52.230;5.194;2023-09-30T10:06:01;102549.00;;;15.00;80.87
53647;BME280;39550;52.230;5.194;2023-09-30T10:08:42;102552.47;;;15.02;80.93
53647;BME280;39550;52.230;5.194;2023-09-30T10:11:17;102553.44;;;15.07;80.62
53647;BME280;39550;52.230;5.194;2023-09-30T10:13:57;102542.25;;;15.11;80.47
53647;BME280;39550;52.230;5.194;2023-09-30T10:19:20;102531.94;;;15.17;80.00
53647;BME280;39550;52.230;5.194;2023-09-30T10:24:52;102525.97;;;15.21;79.46
53647;BME280;39550;52.230;5.194;2023-09-30T10:29:47;102531.19;;;15.24;79.75
53647;BME280;39550;52.230;5.194;2023-09-30T10:32:13;102527.66;;;15.19;80.64
53647;BME280;39550;52.230;5.194;2023-09-30T10:34:47;102522.38;;;15.14;80.61
53647;BME280;39550;52.230;5.194;2023-09-30T10:37:20;102524.13;;;15.14;80.19
53647;BME280;39550;52.230;5.194;2023-09-30T10:39:56;102516.28;;;15.11;80.43
53647;BME280;39550;52.230;5.194;2023-09-30T10:43:02;102518.84;;;15.08;81.11
53647;BME280;39550;52.230;5.194;2023-09-30T10:45:49;102519.66;;;15.05;80.58
53647;BME280;39550;52.230;5.194;2023-09-30T10:50:57;102518.16;;;15.20;79.91
53647;BME280;39550;52.230;5.194;2023-09-30T10:53:27;102510.41;;;15.23;80.53
53647;BME280;39550;52.230;5.194;2023-09-30T10:55:57;102514.75;;;15.25;80.05
53647;BME280;39550;52.230;5.194;2023-09-30T10:58:42;102517.38;;;15.27;80.45
53647;BME280;39550;52.230;5.194;2023-09-30T11:01:08;102517.53;;;15.36;79.59
53647;BME280;39550;52.230;5.194;2023-09-30T11:03:34;102505.47;;;15.40;79.76
53647;BME280;39550;52.230;5.194;2023-09-30T11:05:59;102501.09;;;15.36;79.55
53647;BME280;39550;52.230;5.194;2023-09-30T11:08:28;102508.91;;;15.39;79.93
53647;BME280;39550;52.230;5.194;2023-09-30T11:10:54;102515.75;;;15.32;80.25
53647;BME280;39550;52.230;5.194;2023-09-30T11:13:20;102514.75;;;15.25;79.86
53647;BME280;39550;52.230;5.194;2023-09-30T11:15:46;102509.53;;;15.22;80.53
53647;BME280;39550;52.230;5.194;2023-09-30T11:18:16;102516.41;;;15.20;80.16
53647;BME280;39550;52.230;5.194;2023-09-30T11:20:42;102509.50;;;15.19;80.43
53647;BME280;39550;52.230;5.194;2023-09-30T11:23:10;102507.75;;;15.18;80.23
53647;BME280;39550;52.230;5.194;2023-09-30T11:25:36;102507.75;;;15.18;80.34
53647;BME280;39550;52.230;5.194;2023-09-30T11:28:17;102495.63;;;15.19;80.73
53647;BME280;39550;52.230;5.194;2023-09-30T11:31:12;102499.97;;;15.20;80.24
53647;BME280;39550;52.230;5.194;2023-09-30T11:33:52;102492.19;;;15.20;80.37
53647;BME280;39550;52.230;5.194;2023-09-30T11:36:20;102497.50;;;15.27;80.23
53647;BME280;39550;52.230;5.194;2023-09-30T11:38:47;102490.63;;;15.32;79.99
53647;BME280;39550;52.230;5.194;2023-09-30T11:41:13;102503.88;;;15.48;79.11
53647;BME280;39550;52.230;5.194;2023-09-30T11:43:41;102506.38;;;15.45;79.15
53647;BME280;39550;52.230;5.194;2023-09-30T11:46:25;102507.19;;;15.39;79.42
53647;BME280;39550;52.230;5.194;2023-09-30T11:49:04;102502.78;;;15.33;78.97
53647;BME280;39550;52.230;5.194;2023-09-30T11:51:43;102511.41;;;15.32;79.33
53647;BME280;39550;52.230;5.194;2023-09-30T11:54:14;102514.81;;;15.28;79.66
53647;BME280;39550;52.230;5.194;2023-09-30T11:56:39;102512.16;;;15.25;79.94
53647;BME280;39550;52.230;5.194;2023-09-30T11:59:05;102498.31;;;15.23;79.55
53647;BME280;39550;52.230;5.194;2023-09-30T12:01:30;102508.69;;;15.23;79.68
53647;BME280;39550;52.230;5.194;2023-09-30T12:03:58;102497.38;;;15.21;80.49
53647;BME280;39550;52.230;5.194;2023-09-30T12:06:23;102488.72;;;15.19;80.04
53647;BME280;39550;52.230;5.194;2023-09-30T12:08:49;102482.59;;;15.15;80.36
53647;BME280;39550;52.230;5.194;2023-09-30T12:11:21;102482.66;;;15.20;80.42
53647;BME280;39550;52.230;5.194;2023-09-30T12:13:49;102481.78;;;15.18;80.87
53647;BME280;39550;52.230;5.194;2023-09-30T12:16:16;102483.56;;;15.22;80.16
53647;BME280;39550;52.230;5.194;2023-09-30T12:18:41;102479.19;;;15.18;79.92
53647;BME280;39550;52.230;5.194;2023-09-30T12:21:13;102471.41;;;15.21;80.84
53647;BME280;39550;52.230;5.194;2023-09-30T12:23:39;102476.66;;;15.24;80.68
53647;BME280;39550;52.230;5.194;2023-09-30T12:26:07;102481.00;;;15.25;80.73
53647;BME280;39550;52.230;5.194;2023-09-30T12:28:33;102474.19;;;15.32;80.71
53647;BME280;39550;52.230;5.194;2023-09-30T12:31:00;102465.59;;;15.38;80.21
53647;BME280;39550;52.230;5.194;2023-09-30T12:33:30;102470.78;;;15.38;80.39
53647;BME280;39550;52.230;5.194;2023-09-30T12:36:03;102467.44;;;15.46;80.39
53647;BME280;39550;52.230;5.194;2023-09-30T12:38:29;102472.75;;;15.53;79.63
53647;BME280;39550;52.230;5.194;2023-09-30T12:41:20;102477.88;;;15.48;79.32
53647;BME280;39550;52.230;5.194;2023-09-30T12:43:48;102481.34;;;15.48;79.89
53647;BME280;39550;52.230;5.194;2023-09-30T12:46:13;102477.97;;;15.56;79.29
53647;BME280;39550;52.230;5.194;2023-09-30T12:48:40;102471.06;;;15.56;79.33
53647;BME280;39550;52.230;5.194;2023-09-30T12:51:05;102474.59;;;15.63;78.82
53647;BME280;39550;52.230;5.194;2023-09-30T12:53:32;102472.06;;;15.68;78.32
53647;BME280;39550;52.230;5.194;2023-09-30T12:55:58;102472.97;;;15.71;77.64
53647;BME280;39550;52.230;5.194;2023-09-30T12:58:25;102471.28;;;15.73;77.72
53647;BME280;39550;52.230;5.194;2023-09-30T13:00:54;102462.69;;;15.79;76.33
53647;BME280;39550;52.230;5.194;2023-09-30T13:03:19;102474.22;;;15.99;74.18